createdAt,value
2023-01-10T00:00:03.988Z,3.81
2023-01-10T00:01:03.931Z,3.81
2023-01-10T00:02:03.853Z,3.81
2023-01-10T00:03:03.836Z,3.81
2023-01-10T00:04:03.676Z,3.81
2023-01-10T00:05:03.603Z,3.81
2023-01-10T00:06:03.431Z,3.81
2023-01-10T00:07:04.309Z,3.88
2023-01-10T00:08:04.396Z,3.88
2023-01-10T00:09:04.313Z,3.88
2023-01-10T00:10:04.240Z,3.88
2023-01-10T00:11:04.317Z,3.88
2023-01-10T00:12:04.227Z,3.88
2023-01-10T00:13:04.253Z,3.88
2023-01-10T00:14:04.152Z,3.88
2023-01-10T00:15:04.169Z,3.94
2023-01-10T00:16:04.060Z,3.94
2023-01-10T00:17:04.018Z,3.94
2023-01-10T00:18:03.912Z,3.94
2023-01-10T00:19:03.827Z,3.94
2023-01-10T00:20:03.880Z,3.94
2023-01-10T00:21:03.831Z,3.94
2023-01-10T00:22:03.850Z,4.00
2023-01-10T00:23:03.924Z,4.00
2023-01-10T00:24:03.827Z,4.00
2023-01-10T00:25:03.745Z,4.00
2023-01-10T00:26:03.669Z,4.00
2023-01-10T00:27:03.618Z,4.00
2023-01-10T00:28:03.588Z,4.00
2023-01-10T00:29:03.587Z,4.00
2023-01-10T00:30:03.606Z,4.00
2023-01-10T00:31:03.530Z,4.00
2023-01-10T00:32:03.519Z,4.00
2023-01-10T00:33:03.625Z,4.00
2023-01-10T00:34:03.559Z,4.06
2023-01-10T00:35:03.430Z,4.00
2023-01-10T00:36:03.440Z,4.00
2023-01-10T00:37:03.430Z,4.06
2023-01-10T00:38:03.461Z,4.06
2023-01-10T00:39:04.419Z,4.06
2023-01-10T00:40:04.309Z,4.06
2023-01-10T00:41:04.304Z,4.06
2023-01-10T00:42:04.237Z,4.06
2023-01-10T00:43:04.154Z,4.06
2023-01-10T00:44:04.233Z,4.06
2023-01-10T00:45:04.080Z,4.06
2023-01-10T00:46:04.157Z,4.06
2023-01-10T00:47:03.990Z,4.06
2023-01-10T00:48:03.919Z,4.06
2023-01-10T00:49:03.996Z,4.06
2023-01-10T00:50:03.832Z,4.06
2023-01-10T00:51:03.797Z,4.12
2023-01-10T00:52:03.754Z,4.12
2023-01-10T00:53:03.760Z,4.12
2023-01-10T00:54:03.754Z,4.12
2023-01-10T00:55:03.588Z,4.12
2023-01-10T00:56:03.597Z,4.12
2023-01-10T00:57:03.511Z,4.12
2023-01-10T00:58:04.477Z,4.12
2023-01-10T00:59:04.388Z,4.12
2023-01-10T01:00:04.309Z,4.19
2023-01-10T01:01:04.342Z,4.19
2023-01-10T01:02:04.314Z,4.19
2023-01-10T01:03:04.209Z,4.19
2023-01-10T01:04:04.085Z,4.19
2023-01-10T01:05:03.990Z,4.19
2023-01-10T01:06:03.915Z,4.19
2023-01-10T01:07:03.911Z,4.19
2023-01-10T01:08:03.827Z,4.19
2023-01-10T01:09:03.824Z,4.19
2023-01-10T01:10:04.091Z,4.19
2023-01-10T01:11:04.073Z,4.19
2023-01-10T01:12:03.984Z,4.25
2023-01-10T01:13:03.997Z,4.25
2023-01-10T01:14:03.830Z,4.25
2023-01-10T01:15:03.914Z,4.25
2023-01-10T01:16:03.868Z,4.25
2023-01-10T01:17:03.995Z,4.25
2023-01-10T01:18:03.908Z,4.25
2023-01-10T01:19:03.927Z,4.25
2023-01-10T01:20:03.921Z,4.25
2023-01-10T01:21:03.915Z,4.25
2023-01-10T01:22:03.744Z,4.25
2023-01-10T01:23:03.746Z,4.31
2023-01-10T01:24:03.684Z,4.31
2023-01-10T01:25:03.751Z,4.31
2023-01-10T01:26:03.742Z,4.31
2023-01-10T01:27:03.753Z,4.31
2023-01-10T01:28:03.672Z,4.31
2023-01-10T01:29:03.754Z,4.31
2023-01-10T01:30:03.595Z,4.31
2023-01-10T01:31:03.675Z,4.31
2023-01-10T01:32:03.615Z,4.31
2023-01-10T01:33:03.535Z,4.31
2023-01-10T01:34:03.503Z,4.31
2023-01-10T01:35:03.429Z,4.31
2023-01-10T01:36:04.388Z,4.31
2023-01-10T01:37:04.394Z,4.31
2023-01-10T01:38:04.313Z,4.31
2023-01-10T01:39:04.327Z,4.31
2023-01-10T01:40:04.229Z,4.31
2023-01-10T01:41:04.144Z,4.38
2023-01-10T01:42:04.077Z,4.38
2023-01-10T01:43:04.080Z,4.38
2023-01-10T01:44:03.982Z,4.38
2023-01-10T01:45:03.991Z,4.38
2023-01-10T01:46:03.892Z,4.38
2023-01-10T01:47:03.749Z,4.38
2023-01-10T01:48:03.847Z,4.38
2023-01-10T01:49:03.667Z,4.38
2023-01-10T01:50:03.671Z,4.38
2023-01-10T01:51:03.512Z,4.38
2023-01-10T01:52:03.751Z,4.38
2023-01-10T01:53:03.748Z,4.38
2023-01-10T01:54:03.768Z,4.38
2023-01-10T01:55:03.672Z,4.38
2023-01-10T01:56:03.670Z,4.38
2023-01-10T01:57:03.747Z,4.38
2023-01-10T01:58:03.665Z,4.38
2023-01-10T01:59:03.604Z,4.38
2023-01-10T02:00:03.664Z,4.38
2023-01-10T02:01:03.627Z,4.38
2023-01-10T02:02:03.521Z,4.38
2023-01-10T02:03:04.040Z,4.38
2023-01-10T02:04:03.955Z,4.38
2023-01-10T02:05:03.760Z,4.38
2023-01-10T02:06:03.745Z,4.38
2023-01-10T02:07:03.752Z,4.38
2023-01-10T02:08:03.593Z,4.44
2023-01-10T02:09:03.591Z,4.44
2023-01-10T02:10:03.675Z,4.44
2023-01-10T02:11:03.602Z,4.44
2023-01-10T02:12:03.669Z,4.44
2023-01-10T02:13:03.915Z,4.44
2023-01-10T02:14:03.919Z,4.44
2023-01-10T02:15:03.911Z,4.44
2023-01-10T02:16:03.875Z,4.44
2023-01-10T02:17:03.840Z,4.44
2023-01-10T02:18:03.744Z,4.44
2023-01-10T02:19:03.670Z,4.44
2023-01-10T02:20:03.683Z,4.44
2023-01-10T02:21:03.669Z,4.44
2023-01-10T02:22:03.506Z,4.44
2023-01-10T02:23:03.602Z,4.44
2023-01-10T02:24:03.515Z,4.44
2023-01-10T02:25:03.515Z,4.44
2023-01-10T02:26:04.385Z,4.44
2023-01-10T02:27:04.306Z,4.44
2023-01-10T02:28:03.599Z,4.44
2023-01-10T02:29:03.513Z,4.44
2023-01-10T02:30:03.591Z,4.44
2023-01-10T02:31:03.548Z,4.50
2023-01-10T02:32:03.516Z,4.44
2023-01-10T02:33:05.619Z,4.44
2023-01-10T02:34:04.491Z,4.44
2023-01-10T02:35:04.314Z,4.50
2023-01-10T02:36:04.223Z,4.44
2023-01-10T02:37:04.149Z,4.44
2023-01-10T02:38:03.993Z,4.44
2023-01-10T02:39:03.989Z,4.44
2023-01-10T02:40:03.902Z,4.44
2023-01-10T02:41:03.925Z,4.44
2023-01-10T02:42:03.822Z,4.44
2023-01-10T02:43:03.831Z,4.44
2023-01-10T02:44:03.744Z,4.44
2023-01-10T02:45:03.841Z,4.44
2023-01-10T02:46:03.759Z,4.44
2023-01-10T02:47:03.628Z,4.44
2023-01-10T02:48:03.543Z,4.44
2023-01-10T02:49:03.529Z,4.44
2023-01-10T02:50:04.396Z,4.44
2023-01-10T02:51:04.309Z,4.44
2023-01-10T02:52:04.236Z,4.44
2023-01-10T02:53:04.311Z,4.44
2023-01-10T02:54:04.159Z,4.44
2023-01-10T02:55:04.072Z,4.44
2023-01-10T02:56:04.067Z,4.44
2023-01-10T02:57:03.993Z,4.44
2023-01-10T02:58:04.065Z,4.44
2023-01-10T02:59:03.998Z,4.44
2023-01-10T03:00:03.990Z,4.44
2023-01-10T03:01:03.895Z,4.44
2023-01-10T03:02:03.833Z,4.50
2023-01-10T03:03:03.761Z,4.50
2023-01-10T03:04:03.827Z,4.50
2023-01-10T03:05:03.889Z,4.50
2023-01-10T03:06:03.747Z,4.50
2023-01-10T03:07:03.845Z,4.50
2023-01-10T03:08:03.698Z,4.50
2023-01-10T03:09:03.668Z,4.50
2023-01-10T03:10:03.587Z,4.50
2023-01-10T03:11:03.672Z,4.50
2023-01-10T03:12:03.599Z,4.50
2023-01-10T03:13:03.583Z,4.50
2023-01-10T03:14:03.522Z,4.50
2023-01-10T03:15:03.447Z,4.50
2023-01-10T03:16:03.510Z,4.50
2023-01-10T03:17:04.898Z,4.50
2023-01-10T03:18:03.587Z,4.50
2023-01-10T03:19:03.598Z,4.50
2023-01-10T03:20:03.585Z,4.50
2023-01-10T03:21:03.611Z,4.50
2023-01-10T03:22:03.594Z,4.50
2023-01-10T03:23:03.504Z,4.50
2023-01-10T03:24:03.601Z,4.50
2023-01-10T03:25:03.431Z,4.50
2023-01-10T03:26:03.506Z,4.50
2023-01-10T03:27:04.481Z,4.50
2023-01-10T03:28:04.310Z,4.50
2023-01-10T03:29:04.263Z,4.50
2023-01-10T03:30:04.171Z,4.50
2023-01-10T03:31:04.217Z,4.50
2023-01-10T03:32:04.153Z,4.50
2023-01-10T03:33:04.060Z,4.50
2023-01-10T03:34:03.997Z,4.50
2023-01-10T03:35:03.918Z,4.50
2023-01-10T03:36:03.912Z,4.50
2023-01-10T03:37:03.911Z,4.50
2023-01-10T03:38:03.829Z,4.50
2023-01-10T03:39:03.927Z,4.50
2023-01-10T03:40:03.747Z,4.50
2023-01-10T03:41:03.702Z,4.50
2023-01-10T03:42:03.691Z,4.50
2023-01-10T03:43:03.671Z,4.50
2023-01-10T03:44:03.703Z,4.50
2023-01-10T03:45:03.596Z,4.50
2023-01-10T03:46:03.511Z,4.50
2023-01-10T03:47:03.509Z,4.50
2023-01-10T03:48:04.391Z,4.50
2023-01-10T03:49:04.308Z,4.50
2023-01-10T03:50:04.318Z,4.56
2023-01-10T03:51:04.326Z,4.56
2023-01-10T03:52:04.225Z,4.56
2023-01-10T03:53:04.242Z,4.56
2023-01-10T03:54:04.073Z,4.56
2023-01-10T03:55:03.990Z,4.56
2023-01-10T03:56:04.008Z,4.56
2023-01-10T03:57:03.929Z,4.56
2023-01-10T03:58:03.830Z,4.56
2023-01-10T03:59:03.912Z,4.56
2023-01-10T04:00:03.775Z,4.56
2023-01-10T04:01:03.972Z,4.56
2023-01-10T04:02:03.857Z,4.56
2023-01-10T04:03:03.671Z,4.56
2023-01-10T04:04:03.849Z,4.56
2023-01-10T04:05:03.581Z,4.56
2023-01-10T04:06:03.586Z,4.56
2023-01-10T04:07:03.589Z,4.56
2023-01-10T04:08:03.512Z,4.56
2023-01-10T04:09:03.604Z,4.56
2023-01-10T04:10:03.513Z,4.62
2023-01-10T04:11:03.505Z,4.62
2023-01-10T04:12:04.399Z,4.62
2023-01-10T04:13:04.471Z,4.62
2023-01-10T04:14:04.560Z,4.62
2023-01-10T04:15:03.679Z,4.62
2023-01-10T04:16:03.614Z,4.62
2023-01-10T04:17:03.508Z,4.62
2023-01-10T04:18:04.428Z,4.62
2023-01-10T04:19:04.388Z,4.62
2023-01-10T04:20:04.317Z,4.62
2023-01-10T04:21:04.235Z,4.62
2023-01-10T04:22:04.157Z,4.62
2023-01-10T04:23:04.079Z,4.62
2023-01-10T04:24:04.016Z,4.62
2023-01-10T04:25:04.075Z,4.69
2023-01-10T04:26:03.914Z,4.69
2023-01-10T04:27:03.923Z,4.69
2023-01-10T04:28:03.846Z,4.69
2023-01-10T04:29:03.689Z,4.69
2023-01-10T04:30:03.680Z,4.69
2023-01-10T04:31:03.513Z,4.69
2023-01-10T04:32:03.599Z,4.69
2023-01-10T04:33:03.592Z,4.69
2023-01-10T04:34:03.511Z,4.69
2023-01-10T04:35:03.502Z,4.69
2023-01-10T04:36:03.508Z,4.69
2023-01-10T04:37:03.670Z,4.69
2023-01-10T04:38:03.509Z,4.69
2023-01-10T04:39:03.435Z,4.69
2023-01-10T04:40:04.397Z,4.69
2023-01-10T04:41:04.315Z,4.69
2023-01-10T04:42:04.228Z,4.69
2023-01-10T04:43:04.324Z,4.75
2023-01-10T04:44:04.237Z,4.75
2023-01-10T04:45:04.260Z,4.75
2023-01-10T04:46:04.249Z,4.75
2023-01-10T04:47:04.155Z,4.75
2023-01-10T04:48:04.234Z,4.75
2023-01-10T04:49:04.146Z,4.75
2023-01-10T04:50:04.156Z,4.75
2023-01-10T04:51:04.091Z,4.75
2023-01-10T04:52:04.070Z,4.75
2023-01-10T04:53:04.071Z,4.75
2023-01-10T04:54:03.994Z,4.75
2023-01-10T04:55:04.072Z,4.75
2023-01-10T04:56:03.989Z,4.75
2023-01-10T04:57:03.910Z,4.75
2023-01-10T04:58:03.905Z,4.75
2023-01-10T04:59:03.820Z,4.75
2023-01-10T05:00:03.824Z,4.75
2023-01-10T05:01:03.907Z,4.75
2023-01-10T05:02:04.037Z,4.75
2023-01-10T05:03:04.009Z,4.75
2023-01-10T05:04:03.883Z,4.81
2023-01-10T05:05:03.672Z,4.81
2023-01-10T05:06:03.586Z,4.81
2023-01-10T05:07:03.509Z,4.81
2023-01-10T05:08:03.602Z,4.81
2023-01-10T05:09:03.502Z,4.81
2023-01-10T05:10:03.509Z,4.81
2023-01-10T05:11:03.428Z,4.81
2023-01-10T05:12:04.392Z,4.81
2023-01-10T05:13:04.334Z,4.81
2023-01-10T05:14:04.401Z,4.81
2023-01-10T05:15:04.311Z,4.81
2023-01-10T05:16:04.153Z,4.81
2023-01-10T05:17:04.232Z,4.81
2023-01-10T05:18:04.202Z,4.81
2023-01-10T05:19:04.159Z,4.81
2023-01-10T05:20:03.992Z,4.81
2023-01-10T05:21:03.903Z,4.81
2023-01-10T05:22:03.999Z,4.81
2023-01-10T05:23:04.073Z,4.81
2023-01-10T05:24:04.064Z,4.81
2023-01-10T05:25:04.266Z,4.81
2023-01-10T05:26:04.313Z,4.81
2023-01-10T05:27:04.143Z,4.81
2023-01-10T05:28:04.151Z,4.88
2023-01-10T05:29:04.145Z,4.81
2023-01-10T05:30:04.150Z,4.88
2023-01-10T05:31:04.227Z,4.88
2023-01-10T05:32:04.231Z,4.88
2023-01-10T05:33:04.153Z,4.88
2023-01-10T05:34:04.059Z,4.88
2023-01-10T05:35:03.996Z,4.88
2023-01-10T05:36:03.917Z,4.88
2023-01-10T05:37:03.827Z,4.88
2023-01-10T05:38:03.745Z,4.88
2023-01-10T05:39:03.751Z,4.88
2023-01-10T05:40:03.589Z,4.88
2023-01-10T05:41:03.600Z,4.88
2023-01-10T05:42:03.668Z,4.88
2023-01-10T05:43:03.596Z,4.88
2023-01-10T05:44:03.427Z,4.88
2023-01-10T05:45:03.527Z,4.88
2023-01-10T05:46:04.556Z,4.88
2023-01-10T05:47:04.395Z,4.88
2023-01-10T05:48:04.323Z,4.94
2023-01-10T05:49:04.319Z,4.94
2023-01-10T05:50:04.157Z,4.94
2023-01-10T05:51:04.161Z,4.88
2023-01-10T05:52:04.091Z,4.88
2023-01-10T05:53:03.993Z,4.94
2023-01-10T05:54:03.909Z,4.94
2023-01-10T05:55:03.918Z,4.94
2023-01-10T05:56:03.829Z,4.94
2023-01-10T05:57:03.744Z,4.94
2023-01-10T05:58:04.003Z,4.94
2023-01-10T05:59:07.928Z,4.94
2023-01-10T06:00:05.173Z,4.94
2023-01-10T06:01:03.995Z,4.94
2023-01-10T06:02:03.855Z,4.94
2023-01-10T06:03:03.792Z,4.94
2023-01-10T06:04:03.669Z,4.94
2023-01-10T06:05:03.619Z,4.94
2023-01-10T06:06:03.599Z,4.94
2023-01-10T06:07:04.072Z,4.94
2023-01-10T06:08:04.069Z,4.94
2023-01-10T06:09:03.992Z,4.94
2023-01-10T06:10:03.907Z,4.94
2023-01-10T06:11:03.902Z,5.00
2023-01-10T06:12:03.917Z,5.00
2023-01-10T06:13:03.744Z,5.00
2023-01-10T06:14:03.674Z,5.00
2023-01-10T06:15:03.589Z,5.00
2023-01-10T06:16:03.549Z,5.00
2023-01-10T06:17:03.829Z,5.00
2023-01-10T06:18:03.787Z,5.00
2023-01-10T06:19:03.827Z,5.00
2023-01-10T06:20:03.746Z,5.00
2023-01-10T06:21:03.669Z,5.00
2023-01-10T06:22:03.759Z,5.00
2023-01-10T06:23:03.601Z,5.00
2023-01-10T06:24:03.436Z,5.00
2023-01-10T06:25:04.390Z,5.00
2023-01-10T06:26:04.408Z,5.00
2023-01-10T06:27:04.312Z,5.00
2023-01-10T06:28:04.230Z,5.00
2023-01-10T06:29:04.393Z,5.00
2023-01-10T06:30:04.382Z,5.00
2023-01-10T06:31:03.673Z,5.00
2023-01-10T06:32:03.516Z,5.00
2023-01-10T06:33:04.407Z,5.00
2023-01-10T06:34:04.313Z,5.00
2023-01-10T06:35:04.232Z,5.00
2023-01-10T06:36:04.142Z,5.00
2023-01-10T06:37:04.147Z,5.00
2023-01-10T06:38:04.245Z,5.00
2023-01-10T06:39:04.070Z,5.00
2023-01-10T06:40:04.085Z,5.00
2023-01-10T06:41:04.069Z,5.00
2023-01-10T06:42:04.003Z,5.00
2023-01-10T06:43:04.046Z,5.00
2023-01-10T06:44:03.910Z,5.00
2023-01-10T06:45:03.963Z,5.00
2023-01-10T06:46:03.853Z,5.00
2023-01-10T06:47:03.852Z,4.94
2023-01-10T06:48:03.783Z,5.00
2023-01-10T06:49:03.743Z,4.94
2023-01-10T06:50:03.617Z,4.94
2023-01-10T06:51:03.507Z,4.94
2023-01-10T06:52:03.512Z,4.94
2023-01-10T06:53:03.442Z,4.94
2023-01-10T06:54:04.420Z,4.88
2023-01-10T06:55:04.401Z,4.88
2023-01-10T06:56:04.236Z,4.88
2023-01-10T06:57:04.149Z,4.88
2023-01-10T06:58:04.152Z,4.81
2023-01-10T06:59:04.074Z,4.81
2023-01-10T07:00:04.047Z,4.81
2023-01-10T07:01:04.060Z,4.75
2023-01-10T07:02:04.080Z,4.75
2023-01-10T07:03:03.917Z,4.75
2023-01-10T07:04:03.816Z,4.69
2023-01-10T07:05:03.675Z,4.69
2023-01-10T07:06:03.679Z,4.69
2023-01-10T07:07:03.584Z,4.69
2023-01-10T07:08:03.521Z,4.62
2023-01-10T07:09:03.506Z,4.62
2023-01-10T07:10:04.388Z,4.62
2023-01-10T07:11:04.307Z,4.62
2023-01-10T07:12:04.311Z,4.56
2023-01-10T07:13:04.228Z,4.56
2023-01-10T07:14:04.327Z,4.56
2023-01-10T07:15:04.223Z,4.56
2023-01-10T07:16:04.236Z,4.56
2023-01-10T07:17:04.065Z,4.56
2023-01-10T07:18:04.146Z,4.50
2023-01-10T07:19:04.071Z,4.50
2023-01-10T07:20:04.066Z,4.50
2023-01-10T07:21:04.002Z,4.50
2023-01-10T07:22:03.996Z,4.50
2023-01-10T07:23:03.838Z,4.44
2023-01-10T07:24:03.942Z,4.44
2023-01-10T07:25:03.837Z,4.44
2023-01-10T07:26:03.839Z,4.44
2023-01-10T07:27:03.746Z,4.38
2023-01-10T07:28:03.668Z,4.38
2023-01-10T07:29:03.753Z,4.38
2023-01-10T07:30:03.753Z,4.38
2023-01-10T07:31:03.716Z,4.38
2023-01-10T07:32:03.594Z,4.31
2023-01-10T07:33:03.595Z,4.31
2023-01-10T07:34:04.478Z,4.31
2023-01-10T07:35:04.385Z,4.31
2023-01-10T07:36:04.317Z,4.25
2023-01-10T07:37:04.150Z,4.25
2023-01-10T07:38:04.254Z,4.25
2023-01-10T07:39:04.153Z,4.25
2023-01-10T07:40:03.991Z,4.25
2023-01-10T07:41:03.927Z,4.25
2023-01-10T07:42:03.913Z,4.25
2023-01-10T07:43:03.844Z,4.19
2023-01-10T07:44:03.751Z,4.19
2023-01-10T07:45:03.675Z,4.19
2023-01-10T07:46:03.627Z,4.19
2023-01-10T07:47:03.699Z,4.19
2023-01-10T07:48:03.614Z,4.19
2023-01-10T07:49:03.508Z,4.19
2023-01-10T07:50:03.589Z,4.19
2023-01-10T07:51:03.513Z,4.19
2023-01-10T07:52:03.509Z,4.19
2023-01-10T07:53:04.395Z,4.19
2023-01-10T07:54:03.557Z,4.19
2023-01-10T07:55:04.469Z,4.19
2023-01-10T07:56:04.339Z,4.19
2023-01-10T07:57:04.308Z,4.19
2023-01-10T07:58:04.255Z,4.19
2023-01-10T07:59:04.146Z,4.19
2023-01-10T08:00:04.072Z,4.19
2023-01-10T08:01:04.056Z,4.19
2023-01-10T08:02:03.998Z,4.19
2023-01-10T08:03:04.061Z,4.19
2023-01-10T08:04:03.762Z,4.25
2023-01-10T08:05:04.725Z,4.25
2023-01-10T08:06:03.676Z,4.25
2023-01-10T08:07:03.828Z,4.25
2023-01-10T08:08:03.664Z,4.25
2023-01-10T08:09:03.589Z,4.25
2023-01-10T08:10:03.686Z,4.31
2023-01-10T08:11:03.619Z,4.31
2023-01-10T08:12:03.453Z,4.31
2023-01-10T08:13:17.671Z,4.31
2023-01-10T08:14:04.395Z,4.31
2023-01-10T08:15:04.314Z,4.31
2023-01-10T08:16:04.351Z,4.31
2023-01-10T08:17:04.161Z,4.31
2023-01-10T08:18:04.869Z,4.38
2023-01-10T08:19:04.067Z,4.38
2023-01-10T08:20:04.158Z,4.38
2023-01-10T08:21:04.087Z,4.38
2023-01-10T08:22:03.994Z,4.38
2023-01-10T08:23:04.013Z,4.38
2023-01-10T08:24:03.999Z,4.38
2023-01-10T08:25:03.995Z,4.44
2023-01-10T08:26:03.916Z,4.44
2023-01-10T08:27:04.005Z,4.44
2023-01-10T08:28:03.903Z,4.44
2023-01-10T08:29:03.990Z,4.44
2023-01-10T08:30:03.837Z,4.44
2023-01-10T08:31:03.879Z,4.44
2023-01-10T08:32:03.757Z,4.44
2023-01-10T08:33:03.588Z,4.44
2023-01-10T08:34:03.682Z,4.44
2023-01-10T08:35:03.675Z,4.50
2023-01-10T08:36:04.150Z,4.50
2023-01-10T08:37:04.396Z,4.50
2023-01-10T08:38:03.833Z,4.50
2023-01-10T08:39:03.773Z,4.50
2023-01-10T08:40:03.753Z,4.50
2023-01-10T08:41:03.672Z,4.50
2023-01-10T08:42:03.752Z,4.56
2023-01-10T08:43:03.586Z,4.56
2023-01-10T08:44:03.672Z,4.56
2023-01-10T08:45:03.520Z,4.56
2023-01-10T08:46:04.408Z,4.56
2023-01-10T08:47:03.434Z,4.62
2023-01-10T08:48:03.547Z,4.62
2023-01-10T08:49:03.517Z,4.62
2023-01-10T08:50:05.331Z,4.62
2023-01-10T08:51:04.317Z,4.62
2023-01-10T08:52:04.312Z,4.62
2023-01-10T08:53:04.315Z,4.69
2023-01-10T08:54:04.172Z,4.69
2023-01-10T08:55:04.148Z,4.69
2023-01-10T08:56:05.594Z,4.69
2023-01-10T08:57:04.190Z,4.69
2023-01-10T08:58:04.075Z,4.69
2023-01-10T08:59:04.078Z,4.75
2023-01-10T09:00:03.992Z,4.75
2023-01-10T09:01:04.025Z,4.75
2023-01-10T09:02:03.924Z,4.75
2023-01-10T09:03:04.008Z,4.75
2023-01-10T09:04:03.962Z,4.81
2023-01-10T09:05:04.825Z,4.81
2023-01-10T09:06:03.993Z,4.81
2023-01-10T09:07:03.909Z,4.81
2023-01-10T09:08:03.920Z,4.81
2023-01-10T09:09:03.829Z,4.81
2023-01-10T09:10:03.913Z,4.88
2023-01-10T09:11:03.831Z,4.88
2023-01-10T09:12:03.915Z,4.88
2023-01-10T09:13:03.836Z,4.88
2023-01-10T09:14:03.900Z,4.88
2023-01-10T09:15:03.909Z,4.94
2023-01-10T09:16:03.870Z,4.94
2023-01-10T09:17:03.747Z,4.94
2023-01-10T09:18:03.781Z,5.00
2023-01-10T09:19:04.314Z,5.00
2023-01-10T09:20:04.620Z,5.00
2023-01-10T09:21:03.427Z,5.00
2023-01-10T09:22:04.398Z,5.06
2023-01-10T09:23:03.509Z,5.06
2023-01-10T09:24:04.477Z,5.06
2023-01-10T09:25:04.153Z,5.06
2023-01-10T09:26:04.062Z,5.06
2023-01-10T09:27:03.598Z,5.12
2023-01-10T09:28:03.516Z,5.12
2023-01-10T09:29:03.511Z,5.12
2023-01-10T09:30:04.416Z,5.12
2023-01-10T09:31:03.480Z,5.19
2023-01-10T09:32:04.403Z,5.19
2023-01-10T09:33:04.332Z,5.19
2023-01-10T09:34:04.237Z,5.19
2023-01-10T09:35:04.163Z,5.19
2023-01-10T09:36:04.081Z,5.19
2023-01-10T09:37:04.003Z,5.25
2023-01-10T09:38:03.896Z,5.25
2023-01-10T09:39:03.823Z,5.25
2023-01-10T09:40:03.799Z,5.25
2023-01-10T09:41:03.698Z,5.25
2023-01-10T09:42:03.693Z,5.31
2023-01-10T09:43:03.527Z,5.31
2023-01-10T09:44:03.516Z,5.31
2023-01-10T09:45:04.414Z,5.31
2023-01-10T09:46:04.320Z,5.31
2023-01-10T09:47:11.239Z,5.31
2023-01-10T09:48:04.176Z,5.31
2023-01-10T09:49:04.170Z,5.31
2023-01-10T09:50:04.163Z,5.38
2023-01-10T09:51:04.076Z,5.38
2023-01-10T09:52:04.000Z,5.38
2023-01-10T09:53:03.906Z,5.38
2023-01-10T09:54:11.399Z,5.38
2023-01-10T09:55:03.885Z,5.44
2023-01-10T09:56:03.838Z,5.44
2023-01-10T09:57:03.678Z,5.44
2023-01-10T09:58:03.971Z,5.44
2023-01-10T09:59:03.826Z,5.50
2023-01-10T10:00:03.836Z,5.50
2023-01-10T10:01:03.750Z,5.50
2023-01-10T10:02:03.743Z,5.50
2023-01-10T10:03:03.792Z,5.50
2023-01-10T10:04:03.737Z,5.56
2023-01-10T10:05:03.594Z,5.56
2023-01-10T10:06:11.086Z,5.56
2023-01-10T10:07:03.756Z,5.62
2023-01-10T10:08:03.670Z,5.62
2023-01-10T10:09:04.968Z,5.62
2023-01-10T10:10:03.592Z,5.62
2023-01-10T10:11:03.522Z,5.62
2023-01-10T10:12:03.521Z,5.69
2023-01-10T10:13:03.516Z,5.69
2023-01-10T10:14:03.532Z,5.69
2023-01-10T10:15:04.396Z,5.69
2023-01-10T10:16:04.365Z,5.75
2023-01-10T10:17:04.245Z,5.75
2023-01-10T10:18:04.389Z,5.75
2023-01-10T10:19:04.240Z,5.75
2023-01-10T10:20:04.160Z,5.75
2023-01-10T10:21:04.162Z,5.81
2023-01-10T10:22:04.076Z,5.81
2023-01-10T10:23:04.087Z,5.81
2023-01-10T10:24:03.925Z,5.81
2023-01-10T10:25:03.838Z,5.88
2023-01-10T10:26:03.763Z,5.88
2023-01-10T10:27:03.684Z,5.94
2023-01-10T10:28:03.679Z,5.94
2023-01-10T10:29:03.790Z,5.94
2023-01-10T10:30:03.456Z,6.00
2023-01-10T10:31:04.466Z,6.00
2023-01-10T10:32:04.478Z,6.00
2023-01-10T10:33:04.404Z,6.00
2023-01-10T10:34:04.312Z,6.00
2023-01-10T10:35:04.241Z,6.06
2023-01-10T10:36:04.154Z,6.06
2023-01-10T10:37:04.097Z,6.06
2023-01-10T10:38:04.184Z,6.06
2023-01-10T10:39:03.999Z,6.12
2023-01-10T10:40:04.004Z,6.12
2023-01-10T10:41:04.004Z,6.19
2023-01-10T10:42:04.801Z,6.19
2023-01-10T10:43:03.831Z,6.19
2023-01-10T10:44:03.759Z,6.25
2023-01-10T10:45:03.667Z,6.25
2023-01-10T10:46:03.746Z,6.25
2023-01-10T10:47:03.595Z,6.31
2023-01-10T10:48:03.510Z,6.31
2023-01-10T10:49:04.388Z,6.31
2023-01-10T10:50:04.316Z,6.31
2023-01-10T10:51:04.324Z,6.38
2023-01-10T10:52:04.307Z,6.38
2023-01-10T10:53:04.311Z,6.38
2023-01-10T10:54:04.230Z,6.44
2023-01-10T10:55:04.165Z,6.44
2023-01-10T10:56:04.096Z,6.44
2023-01-10T10:57:03.986Z,6.44
2023-01-10T10:58:03.937Z,6.50
2023-01-10T10:59:03.930Z,6.50
2023-01-10T11:00:04.010Z,6.50
2023-01-10T11:01:04.169Z,6.50
2023-01-10T11:02:04.040Z,6.50
2023-01-10T11:03:03.836Z,6.56
2023-01-10T11:04:03.912Z,6.56
2023-01-10T11:05:03.873Z,6.56
2023-01-10T11:06:03.839Z,6.56
2023-01-10T11:07:03.834Z,6.56
2023-01-10T11:08:03.834Z,6.56
2023-01-10T11:09:04.064Z,6.56
2023-01-10T11:10:04.074Z,6.56
2023-01-10T11:11:04.154Z,6.56
2023-01-10T11:12:04.084Z,6.56
2023-01-10T11:13:03.912Z,6.56
2023-01-10T11:14:03.939Z,6.56
2023-01-10T11:15:03.994Z,6.56
2023-01-10T11:16:04.020Z,6.56
2023-01-10T11:17:04.000Z,6.56
2023-01-10T11:18:03.997Z,6.62
2023-01-10T11:19:03.907Z,6.62
2023-01-10T11:20:03.829Z,6.62
2023-01-10T11:21:03.779Z,6.62
2023-01-10T11:22:03.850Z,6.62
2023-01-10T11:23:03.669Z,6.56
2023-01-10T11:24:03.669Z,6.62
2023-01-10T11:25:03.767Z,6.56
2023-01-10T11:26:03.762Z,6.56
2023-01-10T11:27:03.690Z,6.56
2023-01-10T11:28:03.598Z,6.56
2023-01-10T11:29:03.432Z,6.56
2023-01-10T11:30:04.482Z,6.56
2023-01-10T11:31:04.321Z,6.56
2023-01-10T11:32:04.202Z,6.56
2023-01-10T11:33:04.399Z,6.56
2023-01-10T11:34:04.313Z,6.56
2023-01-10T11:35:04.232Z,6.56
2023-01-10T11:36:04.153Z,6.56
2023-01-10T11:37:04.168Z,6.50
2023-01-10T11:38:04.000Z,6.50
2023-01-10T11:39:04.107Z,6.50
2023-01-10T11:40:04.020Z,6.50
2023-01-10T11:41:03.916Z,6.50
2023-01-10T11:42:03.844Z,6.50
2023-01-10T11:43:03.760Z,6.50
2023-01-10T11:44:03.685Z,6.50
2023-01-10T11:45:03.591Z,6.50
2023-01-10T11:46:03.596Z,6.50
2023-01-10T11:47:04.485Z,6.50
2023-01-10T11:48:04.311Z,6.50
2023-01-10T11:49:07.060Z,6.50
2023-01-10T11:50:04.222Z,6.50
2023-01-10T11:51:04.159Z,6.50
2023-01-10T11:52:04.071Z,6.44
2023-01-10T11:53:04.073Z,6.44
2023-01-10T11:54:04.078Z,6.44
2023-01-10T11:55:03.999Z,6.50
2023-01-10T11:56:04.016Z,6.50
2023-01-10T11:57:03.945Z,6.44
2023-01-10T11:58:03.928Z,6.50
2023-01-10T11:59:03.915Z,6.50
2023-01-10T12:00:03.823Z,6.50
2023-01-10T12:01:03.893Z,6.50
2023-01-10T12:02:03.946Z,6.50
2023-01-10T12:03:03.757Z,6.50
2023-01-10T12:04:03.675Z,6.50
2023-01-10T12:05:03.761Z,6.50
2023-01-10T12:06:03.752Z,6.50
2023-01-10T12:07:03.842Z,6.50
2023-01-10T12:08:03.754Z,6.50
2023-01-10T12:09:03.667Z,6.50
2023-01-10T12:10:03.591Z,6.50
2023-01-10T12:11:03.671Z,6.50
2023-01-10T12:12:03.679Z,6.50
2023-01-10T12:13:03.670Z,6.50
2023-01-10T12:14:03.589Z,6.50
2023-01-10T12:15:03.595Z,6.50
2023-01-10T12:16:03.595Z,6.56
2023-01-10T12:17:03.685Z,6.50
2023-01-10T12:18:03.590Z,6.56
2023-01-10T12:19:04.521Z,6.56
2023-01-10T12:20:03.433Z,6.56
2023-01-10T12:21:04.391Z,6.56
2023-01-10T12:22:04.391Z,6.56
2023-01-10T12:23:04.404Z,6.56
2023-01-10T12:24:04.322Z,6.56
2023-01-10T12:25:04.144Z,6.56
2023-01-10T12:26:11.692Z,6.56
2023-01-10T12:27:04.159Z,6.56
2023-01-10T12:28:04.084Z,6.56
2023-01-10T12:29:03.908Z,6.56
2023-01-10T12:30:04.023Z,6.56
2023-01-10T12:31:03.937Z,6.56
2023-01-10T12:32:03.756Z,6.56
2023-01-10T12:33:03.757Z,6.56
2023-01-10T12:34:03.749Z,6.56
2023-01-10T12:35:03.893Z,6.56
2023-01-10T12:36:03.692Z,6.56
2023-01-10T12:37:03.665Z,6.56
2023-01-10T12:38:03.749Z,6.56
2023-01-10T12:39:03.851Z,6.56
2023-01-10T12:40:03.756Z,6.56
2023-01-10T12:41:03.833Z,6.56
2023-01-10T12:42:03.748Z,6.56
2023-01-10T12:43:03.675Z,6.56
2023-01-10T12:44:03.677Z,6.56
2023-01-10T12:45:03.589Z,6.56
2023-01-10T12:46:09.827Z,6.56
2023-01-10T12:47:07.637Z,6.62
2023-01-10T12:48:03.429Z,6.62
2023-01-10T12:49:04.390Z,6.62
2023-01-10T12:50:04.395Z,6.62
2023-01-10T12:51:04.225Z,6.62
2023-01-10T12:52:04.252Z,6.62
2023-01-10T12:53:04.238Z,6.62
2023-01-10T12:54:04.086Z,6.62
2023-01-10T12:55:04.186Z,6.62
2023-01-10T12:56:04.146Z,6.62
2023-01-10T12:57:04.078Z,6.62
2023-01-10T12:58:03.989Z,6.62
2023-01-10T12:59:03.998Z,6.62
2023-01-10T13:00:04.025Z,6.62
2023-01-10T13:01:04.022Z,6.62
2023-01-10T13:02:04.116Z,6.62
2023-01-10T13:03:04.066Z,6.62
2023-01-10T13:04:03.914Z,6.62
2023-01-10T13:05:03.929Z,6.62
2023-01-10T13:06:03.915Z,6.62
2023-01-10T13:07:03.760Z,6.62
2023-01-10T13:08:03.669Z,6.62
2023-01-10T13:09:03.679Z,6.62
2023-01-10T13:10:03.607Z,6.62
2023-01-10T13:11:03.599Z,6.62
2023-01-10T13:12:03.519Z,6.62
2023-01-10T13:13:03.530Z,6.62
2023-01-10T13:14:03.517Z,6.62
2023-01-10T13:15:04.475Z,6.62
2023-01-10T13:16:04.477Z,6.62
2023-01-10T13:17:04.307Z,6.62
2023-01-10T13:18:04.391Z,6.62